Aviation Digital Data Service (ADDS)

Output produced by METARs form (1735 UTC 03 June 2020)
found at http://www.aviationweather.gov/metar/data/
 
METAR text: ZWWW 031730Z 18004MPS CAVOK 29/04 Q1007 NOSIG
Conditions at: ZWWW (URUM-QI/DIWOPU , CN) observed 1730 UTC 03 June 2020
Temperature: 29.0°C (84°F)
Dewpoint: 4.0°C (39°F) [RH = 20%]
Pressure (altimeter): 29.73 inches Hg (1007.0 mb)
Winds: from the S (180 degrees) at 9 MPH (8 knots; 4.1 m/s)
Visibility: 6 or more miles (10+ km)
Ceiling: ceiling and visibility are OK
Clouds: unknown
Weather: no significant weather observed at this time

METAR text: ZWWW 031700Z 18003MPS CAVOK 29/04 Q1007 NOSIG
Conditions at: ZWWW (URUM-QI/DIWOPU , CN) observed 1700 UTC 03 June 2020
Temperature: 29.0°C (84°F)
Dewpoint: 4.0°C (39°F) [RH = 20%]
Pressure (altimeter): 29.73 inches Hg (1007.0 mb)
Winds: from the S (180 degrees) at 7 MPH (6 knots; 3.1 m/s)
Visibility: 6 or more miles (10+ km)
Ceiling: ceiling and visibility are OK
Clouds: unknown
Weather: no significant weather observed at this time

METAR text: ZWWW 031630Z 19003MPS CAVOK 29/04 Q1007 NOSIG
Conditions at: ZWWW (URUM-QI/DIWOPU , CN) observed 1630 UTC 03 June 2020
Temperature: 29.0°C (84°F)
Dewpoint: 4.0°C (39°F) [RH = 20%]
Pressure (altimeter): 29.73 inches Hg (1007.0 mb)
Winds: from the S (190 degrees) at 7 MPH (6 knots; 3.1 m/s)
Visibility: 6 or more miles (10+ km)
Ceiling: ceiling and visibility are OK
Clouds: unknown
Weather: no significant weather observed at this time

METAR text: ZWWW 031600Z 19004MPS CAVOK 30/04 Q1007 NOSIG
Conditions at: ZWWW (URUM-QI/DIWOPU , CN) observed 1600 UTC 03 June 2020
Temperature: 30.0°C (86°F)
Dewpoint: 4.0°C (39°F) [RH = 19%]
Pressure (altimeter): 29.73 inches Hg (1007.0 mb)
Winds: from the S (190 degrees) at 9 MPH (8 knots; 4.1 m/s)
Visibility: 6 or more miles (10+ km)
Ceiling: ceiling and visibility are OK
Clouds: unknown
Weather: no significant weather observed at this time

METAR text: ZWWW 031530Z 19003MPS CAVOK 30/05 Q1007 NOSIG
Conditions at: ZWWW (URUM-QI/DIWOPU , CN) observed 1530 UTC 03 June 2020
Temperature: 30.0°C (86°F)
Dewpoint: 5.0°C (41°F) [RH = 21%]
Pressure (altimeter): 29.73 inches Hg (1007.0 mb)
Winds: from the S (190 degrees) at 7 MPH (6 knots; 3.1 m/s)
Visibility: 6 or more miles (10+ km)
Ceiling: ceiling and visibility are OK
Clouds: unknown
Weather: no significant weather observed at this time

METAR text: ZWWW 031500Z 21002MPS CAVOK 30/04 Q1007 NOSIG
Conditions at: ZWWW (URUM-QI/DIWOPU , CN) observed 1500 UTC 03 June 2020
Temperature: 30.0°C (86°F)
Dewpoint: 4.0°C (39°F) [RH = 19%]
Pressure (altimeter): 29.73 inches Hg (1007.0 mb)
Winds: from the SSW (210 degrees) at 5 MPH (4 knots; 2.1 m/s)
Visibility: 6 or more miles (10+ km)
Ceiling: ceiling and visibility are OK
Clouds: unknown
Weather: no significant weather observed at this time

METAR text: ZWWW 031430Z 25003MPS CAVOK 30/03 Q1006 NOSIG
Conditions at: ZWWW (URUM-QI/DIWOPU , CN) observed 1430 UTC 03 June 2020
Temperature: 30.0°C (86°F)
Dewpoint: 3.0°C (37°F) [RH = 18%]
Pressure (altimeter): 29.70 inches Hg (1006.0 mb)
Winds: from the WSW (250 degrees) at 7 MPH (6 knots; 3.1 m/s)
Visibility: 6 or more miles (10+ km)
Ceiling: ceiling and visibility are OK
Clouds: unknown
Weather: no significant weather observed at this time

METAR text: ZWWW 031400Z 26002MPS CAVOK 31/04 Q1006 NOSIG
Conditions at: ZWWW (URUM-QI/DIWOPU , CN) observed 1400 UTC 03 June 2020
Temperature: 31.0°C (88°F)
Dewpoint: 4.0°C (39°F) [RH = 18%]
Pressure (altimeter): 29.70 inches Hg (1006.0 mb)
Winds: from the W (260 degrees) at 5 MPH (4 knots; 2.1 m/s)
Visibility: 6 or more miles (10+ km)
Ceiling: ceiling and visibility are OK
Clouds: unknown
Weather: no significant weather observed at this time

METAR text: ZWWW 031330Z 32002MPS CAVOK 32/04 Q1006 NOSIG
Conditions at: ZWWW (URUM-QI/DIWOPU , CN) observed 1330 UTC 03 June 2020
Temperature: 32.0°C (90°F)
Dewpoint: 4.0°C (39°F) [RH = 17%]
Pressure (altimeter): 29.70 inches Hg (1006.0 mb)
Winds: from the NW (320 degrees) at 5 MPH (4 knots; 2.1 m/s)
Visibility: 6 or more miles (10+ km)
Ceiling: ceiling and visibility are OK
Clouds: unknown
Weather: no significant weather observed at this time

METAR text: ZWWW 031300Z 32003MPS CAVOK 33/04 Q1006 BECMG TL1450 24005MPS
Conditions at: ZWWW (URUM-QI/DIWOPU , CN) observed 1300 UTC 03 June 2020
Temperature: 33.0°C (91°F)
Dewpoint: 4.0°C (39°F) [RH = 16%]
Pressure (altimeter): 29.70 inches Hg (1006.0 mb)
Winds: from the NW (320 degrees) at 7 MPH (6 knots; 3.1 m/s)
Visibility: 6 or more miles (10+ km)
Ceiling: ceiling and visibility are OK
Clouds: unknown
Weather: no significant weather observed at this time

METAR text: ZWWW 031230Z 32003MPS CAVOK 34/04 Q1006 NOSIG
Conditions at: ZWWW (URUM-QI/DIWOPU , CN) observed 1230 UTC 03 June 2020
Temperature: 34.0°C (93°F)
Dewpoint: 4.0°C (39°F) [RH = 15%]
Pressure (altimeter): 29.70 inches Hg (1006.0 mb)
Winds: from the NW (320 degrees) at 7 MPH (6 knots; 3.1 m/s)
Visibility: 6 or more miles (10+ km)
Ceiling: ceiling and visibility are OK
Clouds: unknown
Weather: no significant weather observed at this time

METAR text: ZWWW 031200Z 33004MPS 300V360 9999 FEW040TCU 33/04 Q1006 NOSIG
Conditions at: ZWWW (URUM-QI/DIWOPU , CN) observed 1200 UTC 03 June 2020
Temperature: 33.0°C (91°F)
Dewpoint: 4.0°C (39°F) [RH = 16%]
Pressure (altimeter): 29.70 inches Hg (1006.0 mb)
Winds: from the NNW (330 degrees) at 9 MPH (8 knots; 4.1 m/s)
Visibility: 6 or more miles (10+ km)
Ceiling: at least 12,000 feet AGL
Clouds: few clouds at 4000 feet AGL
Weather: no significant weather observed at this time

METAR text: ZWWW 031130Z 34003MPS 300V010 CAVOK 34/02 Q1006 NOSIG
Conditions at: ZWWW (URUM-QI/DIWOPU , CN) observed 1130 UTC 03 June 2020
Temperature: 34.0°C (93°F)
Dewpoint: 2.0°C (36°F) [RH = 13%]
Pressure (altimeter): 29.70 inches Hg (1006.0 mb)
Winds: from the NNW (340 degrees) at 7 MPH (6 knots; 3.1 m/s)
Visibility: 6 or more miles (10+ km)
Ceiling: ceiling and visibility are OK
Clouds: unknown
Weather: no significant weather observed at this time

METAR text: ZWWW 031100Z 32004MPS 290V360 CAVOK 35/01 Q1006 NOSIG
Conditions at: ZWWW (URUM-QI/DIWOPU , CN) observed 1100 UTC 03 June 2020
Temperature: 35.0°C (95°F)
Dewpoint: 1.0°C (34°F) [RH = 12%]
Pressure (altimeter): 29.70 inches Hg (1006.0 mb)
Winds: from the NW (320 degrees) at 9 MPH (8 knots; 4.1 m/s)
Visibility: 6 or more miles (10+ km)
Ceiling: ceiling and visibility are OK
Clouds: unknown
Weather: no significant weather observed at this time

METAR text: ZWWW 031030Z 35005MPS CAVOK 35/03 Q1006 NOSIG
Conditions at: ZWWW (URUM-QI/DIWOPU , CN) observed 1030 UTC 03 June 2020
Temperature: 35.0°C (95°F)
Dewpoint: 3.0°C (37°F) [RH = 13%]
Pressure (altimeter): 29.70 inches Hg (1006.0 mb)
Winds: from the N (350 degrees) at 12 MPH (10 knots; 5.1 m/s)
Visibility: 6 or more miles (10+ km)
Ceiling: ceiling and visibility are OK
Clouds: unknown
Weather: no significant weather observed at this time

METAR text: ZWWW 031000Z 36003MPS 310V030 CAVOK 35/04 Q1007 NOSIG
Conditions at: ZWWW (URUM-QI/DIWOPU , CN) observed 1000 UTC 03 June 2020
Temperature: 35.0°C (95°F)
Dewpoint: 4.0°C (39°F) [RH = 14%]
Pressure (altimeter): 29.73 inches Hg (1007.0 mb)
Winds: from the N (360 degrees) at 7 MPH (6 knots; 3.1 m/s)
Visibility: 6 or more miles (10+ km)
Ceiling: ceiling and visibility are OK
Clouds: unknown
Weather: no significant weather observed at this time

METAR text: ZWWW 030930Z 30003MPS 260V330 CAVOK 35/04 Q1007 NOSIG
Conditions at: ZWWW (URUM-QI/DIWOPU , CN) observed 0930 UTC 03 June 2020
Temperature: 35.0°C (95°F)
Dewpoint: 4.0°C (39°F) [RH = 14%]
Pressure (altimeter): 29.73 inches Hg (1007.0 mb)
Winds: from the WNW (300 degrees) at 7 MPH (6 knots; 3.1 m/s)
Visibility: 6 or more miles (10+ km)
Ceiling: ceiling and visibility are OK
Clouds: unknown
Weather: no significant weather observed at this time

METAR text: ZWWW 030900Z 32003MPS 280V360 CAVOK 34/05 Q1007 NOSIG
Conditions at: ZWWW (URUM-QI/DIWOPU , CN) observed 0900 UTC 03 June 2020
Temperature: 34.0°C (93°F)
Dewpoint: 5.0°C (41°F) [RH = 16%]
Pressure (altimeter): 29.73 inches Hg (1007.0 mb)
Winds: from the NW (320 degrees) at 7 MPH (6 knots; 3.1 m/s)
Visibility: 6 or more miles (10+ km)
Ceiling: ceiling and visibility are OK
Clouds: unknown
Weather: no significant weather observed at this time

METAR text: ZWWW 030830Z 33003MPS 270V030 CAVOK 34/05 Q1007 NOSIG
Conditions at: ZWWW (URUM-QI/DIWOPU , CN) observed 0830 UTC 03 June 2020
Temperature: 34.0°C (93°F)
Dewpoint: 5.0°C (41°F) [RH = 16%]
Pressure (altimeter): 29.73 inches Hg (1007.0 mb)
Winds: from the NNW (330 degrees) at 7 MPH (6 knots; 3.1 m/s)
Visibility: 6 or more miles (10+ km)
Ceiling: ceiling and visibility are OK
Clouds: unknown
Weather: no significant weather observed at this time

METAR text: ZWWW 030800Z 30005MPS 270V340 CAVOK 34/05 Q1007 NOSIG
Conditions at: ZWWW (URUM-QI/DIWOPU , CN) observed 0800 UTC 03 June 2020
Temperature: 34.0°C (93°F)
Dewpoint: 5.0°C (41°F) [RH = 16%]
Pressure (altimeter): 29.73 inches Hg (1007.0 mb)
Winds: from the WNW (300 degrees) at 12 MPH (10 knots; 5.1 m/s)
Visibility: 6 or more miles (10+ km)
Ceiling: ceiling and visibility are OK
Clouds: unknown
Weather: no significant weather observed at this time

METAR text: ZWWW 030730Z 34004MPS 280V030 CAVOK 33/05 Q1007 NOSIG
Conditions at: ZWWW (URUM-QI/DIWOPU , CN) observed 0730 UTC 03 June 2020
Temperature: 33.0°C (91°F)
Dewpoint: 5.0°C (41°F) [RH = 17%]
Pressure (altimeter): 29.73 inches Hg (1007.0 mb)
Winds: from the NNW (340 degrees) at 9 MPH (8 knots; 4.1 m/s)
Visibility: 6 or more miles (10+ km)
Ceiling: ceiling and visibility are OK
Clouds: unknown
Weather: no significant weather observed at this time

METAR text: ZWWW 030700Z 36006MPS 320V020 CAVOK 34/07 Q1007 BECMG TL0750 30005MPS
Conditions at: ZWWW (URUM-QI/DIWOPU , CN) observed 0700 UTC 03 June 2020
Temperature: 34.0°C (93°F)
Dewpoint: 7.0°C (45°F) [RH = 19%]
Pressure (altimeter): 29.73 inches Hg (1007.0 mb)
Winds: from the N (360 degrees) at 14 MPH (12 knots; 6.2 m/s)
Visibility: 6 or more miles (10+ km)
Ceiling: ceiling and visibility are OK
Clouds: unknown
Weather: no significant weather observed at this time

METAR text: ZWWW 030630Z 33004MPS 290V020 CAVOK 34/05 Q1008 NOSIG
Conditions at: ZWWW (URUM-QI/DIWOPU , CN) observed 0630 UTC 03 June 2020
Temperature: 34.0°C (93°F)
Dewpoint: 5.0°C (41°F) [RH = 16%]
Pressure (altimeter): 29.76 inches Hg (1008.0 mb)
Winds: from the NNW (330 degrees) at 9 MPH (8 knots; 4.1 m/s)
Visibility: 6 or more miles (10+ km)
Ceiling: ceiling and visibility are OK
Clouds: unknown
Weather: no significant weather observed at this time

METAR text: ZWWW 030600Z 33005MPS 290V360 CAVOK 34/04 Q1008 NOSIG
Conditions at: ZWWW (URUM-QI/DIWOPU , CN) observed 0600 UTC 03 June 2020
Temperature: 34.0°C (93°F)
Dewpoint: 4.0°C (39°F) [RH = 15%]
Pressure (altimeter): 29.76 inches Hg (1008.0 mb)
Winds: from the NNW (330 degrees) at 12 MPH (10 knots; 5.1 m/s)
Visibility: 6 or more miles (10+ km)
Ceiling: ceiling and visibility are OK
Clouds: unknown
Weather: no significant weather observed at this time

METAR text: ZWWW 030530Z 33006MPS 280V360 CAVOK 33/04 Q1008 NOSIG
Conditions at: ZWWW (URUM-QI/DIWOPU , CN) observed 0530 UTC 03 June 2020
Temperature: 33.0°C (91°F)
Dewpoint: 4.0°C (39°F) [RH = 16%]
Pressure (altimeter): 29.76 inches Hg (1008.0 mb)
Winds: from the NNW (330 degrees) at 14 MPH (12 knots; 6.2 m/s)
Visibility: 6 or more miles (10+ km)
Ceiling: ceiling and visibility are OK
Clouds: unknown
Weather: no significant weather observed at this time

METAR text: ZWWW 030500Z 36005MPS 330V050 CAVOK 33/04 Q1008 NOSIG
Conditions at: ZWWW (URUM-QI/DIWOPU , CN) observed 0500 UTC 03 June 2020
Temperature: 33.0°C (91°F)
Dewpoint: 4.0°C (39°F) [RH = 16%]
Pressure (altimeter): 29.76 inches Hg (1008.0 mb)
Winds: from the N (360 degrees) at 12 MPH (10 knots; 5.1 m/s)
Visibility: 6 or more miles (10+ km)
Ceiling: ceiling and visibility are OK
Clouds: unknown
Weather: no significant weather observed at this time

METAR text: ZWWW 030430Z 33003G08MPS 290V020 CAVOK 33/03 Q1008 NOSIG
Conditions at: ZWWW (URUM-QI/DIWOPU , CN) observed 0430 UTC 03 June 2020
Temperature: 33.0°C (91°F)
Dewpoint: 3.0°C (37°F) [RH = 15%]
Pressure (altimeter): 29.76 inches Hg (1008.0 mb)
Winds: from the NNW (330 degrees) at 7 MPH (6 knots; 3.1 m/s)
gusting to 18 MPH (16 knots; 8.2 m/s)
Visibility: 6 or more miles (10+ km)
Ceiling: ceiling and visibility are OK
Clouds: unknown
Weather: no significant weather observed at this time

METAR text: ZWWW 030400Z 33003MPS 280V360 CAVOK 33/02 Q1008 NOSIG
Conditions at: ZWWW (URUM-QI/DIWOPU , CN) observed 0400 UTC 03 June 2020
Temperature: 33.0°C (91°F)
Dewpoint: 2.0°C (36°F) [RH = 14%]
Pressure (altimeter): 29.76 inches Hg (1008.0 mb)
Winds: from the NNW (330 degrees) at 7 MPH (6 knots; 3.1 m/s)
Visibility: 6 or more miles (10+ km)
Ceiling: ceiling and visibility are OK
Clouds: unknown
Weather: no significant weather observed at this time

METAR text: ZWWW 030330Z VRB02MPS CAVOK 32/02 Q1008 NOSIG
Conditions at: ZWWW (URUM-QI/DIWOPU , CN) observed 0330 UTC 03 June 2020
Temperature: 32.0°C (90°F)
Dewpoint: 2.0°C (36°F) [RH = 15%]
Pressure (altimeter): 29.76 inches Hg (1008.0 mb)
Winds: variable direction winds at 5 MPH (4 knots; 2.1 m/s)
Visibility: 6 or more miles (10+ km)
Ceiling: ceiling and visibility are OK
Clouds: unknown
Weather: no significant weather observed at this time

METAR text: ZWWW 030300Z 32003MPS 280V350 CAVOK 31/04 Q1009 NOSIG
Conditions at: ZWWW (URUM-QI/DIWOPU , CN) observed 0300 UTC 03 June 2020
Temperature: 31.0°C (88°F)
Dewpoint: 4.0°C (39°F) [RH = 18%]
Pressure (altimeter): 29.79 inches Hg (1009.0 mb)
Winds: from the NW (320 degrees) at 7 MPH (6 knots; 3.1 m/s)
Visibility: 6 or more miles (10+ km)
Ceiling: ceiling and visibility are OK
Clouds: unknown
Weather: no significant weather observed at this time

METAR text: ZWWW 030230Z 33002MPS 270V360 CAVOK 30/01 Q1009 NOSIG
Conditions at: ZWWW (URUM-QI/DIWOPU , CN) observed 0230 UTC 03 June 2020
Temperature: 30.0°C (86°F)
Dewpoint: 1.0°C (34°F) [RH = 15%]
Pressure (altimeter): 29.79 inches Hg (1009.0 mb)
Winds: from the NNW (330 degrees) at 5 MPH (4 knots; 2.1 m/s)
Visibility: 6 or more miles (10+ km)
Ceiling: ceiling and visibility are OK
Clouds: unknown
Weather: no significant weather observed at this time

METAR text: ZWWW 030200Z VRB01MPS CAVOK 31/01 Q1009 NOSIG
Conditions at: ZWWW (URUM-QI/DIWOPU , CN) observed 0200 UTC 03 June 2020
Temperature: 31.0°C (88°F)
Dewpoint: 1.0°C (34°F) [RH = 15%]
Pressure (altimeter): 29.79 inches Hg (1009.0 mb)
Winds: variable direction winds at 2 MPH (2 knots; 1.0 m/s)
Visibility: 6 or more miles (10+ km)
Ceiling: ceiling and visibility are OK
Clouds: unknown
Weather: no significant weather observed at this time

METAR text: ZWWW 030130Z 06002MPS 030V130 CAVOK 29/02 Q1009 NOSIG
Conditions at: ZWWW (URUM-QI/DIWOPU , CN) observed 0130 UTC 03 June 2020
Temperature: 29.0°C (84°F)
Dewpoint: 2.0°C (36°F) [RH = 18%]
Pressure (altimeter): 29.79 inches Hg (1009.0 mb)
Winds: from the ENE (60 degrees) at 5 MPH (4 knots; 2.1 m/s)
Visibility: 6 or more miles (10+ km)
Ceiling: ceiling and visibility are OK
Clouds: unknown
Weather: no significant weather observed at this time

METAR text: ZWWW 030100Z 06002MPS 010V100 CAVOK 26/02 Q1009 NOSIG
Conditions at: ZWWW (URUM-QI/DIWOPU , CN) observed 0100 UTC 03 June 2020
Temperature: 26.0°C (79°F)
Dewpoint: 2.0°C (36°F) [RH = 21%]
Pressure (altimeter): 29.79 inches Hg (1009.0 mb)
Winds: from the ENE (60 degrees) at 5 MPH (4 knots; 2.1 m/s)
Visibility: 6 or more miles (10+ km)
Ceiling: ceiling and visibility are OK
Clouds: unknown
Weather: no significant weather observed at this time

METAR text: ZWWW 030030Z 36002MPS CAVOK 25/02 Q1009 NOSIG
Conditions at: ZWWW (URUM-QI/DIWOPU , CN) observed 0030 UTC 03 June 2020
Temperature: 25.0°C (77°F)
Dewpoint: 2.0°C (36°F) [RH = 22%]
Pressure (altimeter): 29.79 inches Hg (1009.0 mb)
Winds: from the N (360 degrees) at 5 MPH (4 knots; 2.1 m/s)
Visibility: 6 or more miles (10+ km)
Ceiling: ceiling and visibility are OK
Clouds: unknown
Weather: no significant weather observed at this time

METAR text: ZWWW 030000Z VRB01MPS CAVOK 25/01 Q1008 NOSIG
Conditions at: ZWWW (URUM-QI/DIWOPU , CN) observed 0000 UTC 03 June 2020
Temperature: 25.0°C (77°F)
Dewpoint: 1.0°C (34°F) [RH = 21%]
Pressure (altimeter): 29.76 inches Hg (1008.0 mb)
Winds: variable direction winds at 2 MPH (2 knots; 1.0 m/s)
Visibility: 6 or more miles (10+ km)
Ceiling: ceiling and visibility are OK
Clouds: unknown
Weather: no significant weather observed at this time

METAR text: ZWWW 022330Z 23003MPS CAVOK 25/M01 Q1009 NOSIG
Conditions at: ZWWW (URUM-QI/DIWOPU , CN) observed 2330 UTC 02 June 2020
Temperature: 25.0°C (77°F)
Dewpoint: -1.0°C (30°F) [RH = 18%]
Pressure (altimeter): 29.79 inches Hg (1009.0 mb)
Winds: from the SW (230 degrees) at 7 MPH (6 knots; 3.1 m/s)
Visibility: 6 or more miles (10+ km)
Ceiling: ceiling and visibility are OK
Clouds: unknown
Weather: no significant weather observed at this time

METAR text: ZWWW 022300Z 26003MPS CAVOK 23/M02 Q1009 NOSIG
Conditions at: ZWWW (URUM-QI/DIWOPU , CN) observed 2300 UTC 02 June 2020
Temperature: 23.0°C (73°F)
Dewpoint: -2.0°C (28°F) [RH = 19%]
Pressure (altimeter): 29.79 inches Hg (1009.0 mb)
Winds: from the W (260 degrees) at 7 MPH (6 knots; 3.1 m/s)
Visibility: 6 or more miles (10+ km)
Ceiling: ceiling and visibility are OK
Clouds: unknown
Weather: no significant weather observed at this time

METAR text: ZWWW 022230Z 20003MPS 160V240 CAVOK 24/M01 Q1008 NOSIG
Conditions at: ZWWW (URUM-QI/DIWOPU , CN) observed 2230 UTC 02 June 2020
Temperature: 24.0°C (75°F)
Dewpoint: -1.0°C (30°F) [RH = 19%]
Pressure (altimeter): 29.76 inches Hg (1008.0 mb)
Winds: from the SSW (200 degrees) at 7 MPH (6 knots; 3.1 m/s)
Visibility: 6 or more miles (10+ km)
Ceiling: ceiling and visibility are OK
Clouds: unknown
Weather: no significant weather observed at this time

METAR text: ZWWW 022200Z 11003MPS CAVOK 24/M02 Q1009 NOSIG
Conditions at: ZWWW (URUM-QI/DIWOPU , CN) observed 2200 UTC 02 June 2020
Temperature: 24.0°C (75°F)
Dewpoint: -2.0°C (28°F) [RH = 18%]
Pressure (altimeter): 29.79 inches Hg (1009.0 mb)
Winds: from the ESE (110 degrees) at 7 MPH (6 knots; 3.1 m/s)
Visibility: 6 or more miles (10+ km)
Ceiling: ceiling and visibility are OK
Clouds: unknown
Weather: no significant weather observed at this time

METAR text: ZWWW 022130Z 06005MPS 030V090 8000 NSC 25/M02 Q1008 NOSIG
Conditions at: ZWWW (URUM-QI/DIWOPU , CN) observed 2130 UTC 02 June 2020
Temperature: 25.0°C (77°F)
Dewpoint: -2.0°C (28°F) [RH = 17%]
Pressure (altimeter): 29.76 inches Hg (1008.0 mb)
Winds: from the ENE (60 degrees) at 12 MPH (10 knots; 5.1 m/s)
Visibility: 5 miles ( 8 km)
Ceiling: at least 12,000 feet AGL
Clouds: sky clear below 12,000 feet AGL
Weather: no significant weather observed at this time

METAR text: ZWWW 022100Z 16004MPS CAVOK 25/M02 Q1007 NOSIG
Conditions at: ZWWW (URUM-QI/DIWOPU , CN) observed 2100 UTC 02 June 2020
Temperature: 25.0°C (77°F)
Dewpoint: -2.0°C (28°F) [RH = 17%]
Pressure (altimeter): 29.73 inches Hg (1007.0 mb)
Winds: from the SSE (160 degrees) at 9 MPH (8 knots; 4.1 m/s)
Visibility: 6 or more miles (10+ km)
Ceiling: ceiling and visibility are OK
Clouds: unknown
Weather: no significant weather observed at this time

METAR text: ZWWW 022030Z 16004MPS CAVOK 26/M02 Q1007 NOSIG
Conditions at: ZWWW (URUM-QI/DIWOPU , CN) observed 2030 UTC 02 June 2020
Temperature: 26.0°C (79°F)
Dewpoint: -2.0°C (28°F) [RH = 16%]
Pressure (altimeter): 29.73 inches Hg (1007.0 mb)
Winds: from the SSE (160 degrees) at 9 MPH (8 knots; 4.1 m/s)
Visibility: 6 or more miles (10+ km)
Ceiling: ceiling and visibility are OK
Clouds: unknown
Weather: no significant weather observed at this time

METAR text: ZWWW 022000Z 16004MPS CAVOK 26/M02 Q1007 NOSIG
Conditions at: ZWWW (URUM-QI/DIWOPU , CN) observed 2000 UTC 02 June 2020
Temperature: 26.0°C (79°F)
Dewpoint: -2.0°C (28°F) [RH = 16%]
Pressure (altimeter): 29.73 inches Hg (1007.0 mb)
Winds: from the SSE (160 degrees) at 9 MPH (8 knots; 4.1 m/s)
Visibility: 6 or more miles (10+ km)
Ceiling: ceiling and visibility are OK
Clouds: unknown
Weather: no significant weather observed at this time

METAR text: ZWWW 021930Z 15003MPS CAVOK 26/M03 Q1007 NOSIG
Conditions at: ZWWW (URUM-QI/DIWOPU , CN) observed 1930 UTC 02 June 2020
Temperature: 26.0°C (79°F)
Dewpoint: -3.0°C (27°F) [RH = 15%]
Pressure (altimeter): 29.73 inches Hg (1007.0 mb)
Winds: from the SSE (150 degrees) at 7 MPH (6 knots; 3.1 m/s)
Visibility: 6 or more miles (10+ km)
Ceiling: ceiling and visibility are OK
Clouds: unknown
Weather: no significant weather observed at this time

METAR text: ZWWW 021900Z 15004MPS CAVOK 26/M02 Q1007 NOSIG
Conditions at: ZWWW (URUM-QI/DIWOPU , CN) observed 1900 UTC 02 June 2020
Temperature: 26.0°C (79°F)
Dewpoint: -2.0°C (28°F) [RH = 16%]
Pressure (altimeter): 29.73 inches Hg (1007.0 mb)
Winds: from the SSE (150 degrees) at 9 MPH (8 knots; 4.1 m/s)
Visibility: 6 or more miles (10+ km)
Ceiling: ceiling and visibility are OK
Clouds: unknown
Weather: no significant weather observed at this time

METAR text: ZWWW 021830Z 16004MPS CAVOK 27/M02 Q1007 NOSIG
Conditions at: ZWWW (URUM-QI/DIWOPU , CN) observed 1830 UTC 02 June 2020
Temperature: 27.0°C (81°F)
Dewpoint: -2.0°C (28°F) [RH = 15%]
Pressure (altimeter): 29.73 inches Hg (1007.0 mb)
Winds: from the SSE (160 degrees) at 9 MPH (8 knots; 4.1 m/s)
Visibility: 6 or more miles (10+ km)
Ceiling: ceiling and visibility are OK
Clouds: unknown
Weather: no significant weather observed at this time

METAR text: ZWWW 021800Z 17004MPS CAVOK 27/M02 Q1007 NOSIG
Conditions at: ZWWW (URUM-QI/DIWOPU , CN) observed 1800 UTC 02 June 2020
Temperature: 27.0°C (81°F)
Dewpoint: -2.0°C (28°F) [RH = 15%]
Pressure (altimeter): 29.73 inches Hg (1007.0 mb)
Winds: from the S (170 degrees) at 9 MPH (8 knots; 4.1 m/s)
Visibility: 6 or more miles (10+ km)
Ceiling: ceiling and visibility are OK
Clouds: unknown
Weather: no significant weather observed at this time

METAR text: ZWWW 021730Z 18005MPS CAVOK 28/M03 Q1007 NOSIG
Conditions at: ZWWW (URUM-QI/DIWOPU , CN) observed 1730 UTC 02 June 2020
Temperature: 28.0°C (82°F)
Dewpoint: -3.0°C (27°F) [RH = 13%]
Pressure (altimeter): 29.73 inches Hg (1007.0 mb)
Winds: from the S (180 degrees) at 12 MPH (10 knots; 5.1 m/s)
Visibility: 6 or more miles (10+ km)
Ceiling: ceiling and visibility are OK
Clouds: unknown
Weather: no significant weather observed at this time

METAR text: ZWWW 021700Z 18004MPS CAVOK 28/M02 Q1007 NOSIG
Conditions at: ZWWW (URUM-QI/DIWOPU , CN) observed 1700 UTC 02 June 2020
Temperature: 28.0°C (82°F)
Dewpoint: -2.0°C (28°F) [RH = 14%]
Pressure (altimeter): 29.73 inches Hg (1007.0 mb)
Winds: from the S (180 degrees) at 9 MPH (8 knots; 4.1 m/s)
Visibility: 6 or more miles (10+ km)
Ceiling: ceiling and visibility are OK
Clouds: unknown
Weather: no significant weather observed at this time

METAR text: ZWWW 021630Z 19003MPS CAVOK 29/M02 Q1008 NOSIG
Conditions at: ZWWW (URUM-QI/DIWOPU , CN) observed 1630 UTC 02 June 2020
Temperature: 29.0°C (84°F)
Dewpoint: -2.0°C (28°F) [RH = 13%]
Pressure (altimeter): 29.76 inches Hg (1008.0 mb)
Winds: from the S (190 degrees) at 7 MPH (6 knots; 3.1 m/s)
Visibility: 6 or more miles (10+ km)
Ceiling: ceiling and visibility are OK
Clouds: unknown
Weather: no significant weather observed at this time

METAR text: ZWWW 021600Z 18002MPS CAVOK 29/M01 Q1008 NOSIG
Conditions at: ZWWW (URUM-QI/DIWOPU , CN) observed 1600 UTC 02 June 2020
Temperature: 29.0°C (84°F)
Dewpoint: -1.0°C (30°F) [RH = 14%]
Pressure (altimeter): 29.76 inches Hg (1008.0 mb)
Winds: from the S (180 degrees) at 5 MPH (4 knots; 2.1 m/s)
Visibility: 6 or more miles (10+ km)
Ceiling: ceiling and visibility are OK
Clouds: unknown
Weather: no significant weather observed at this time

METAR text: ZWWW 021530Z 21002MPS CAVOK 29/M02 Q1008 NOSIG
Conditions at: ZWWW (URUM-QI/DIWOPU , CN) observed 1530 UTC 02 June 2020
Temperature: 29.0°C (84°F)
Dewpoint: -2.0°C (28°F) [RH = 13%]
Pressure (altimeter): 29.76 inches Hg (1008.0 mb)
Winds: from the SSW (210 degrees) at 5 MPH (4 knots; 2.1 m/s)
Visibility: 6 or more miles (10+ km)
Ceiling: ceiling and visibility are OK
Clouds: unknown
Weather: no significant weather observed at this time

METAR text: ZWWW 021500Z 22003MPS CAVOK 31/M02 Q1007 NOSIG
Conditions at: ZWWW (URUM-QI/DIWOPU , CN) observed 1500 UTC 02 June 2020
Temperature: 31.0°C (88°F)
Dewpoint: -2.0°C (28°F) [RH = 12%]
Pressure (altimeter): 29.73 inches Hg (1007.0 mb)
Winds: from the SW (220 degrees) at 7 MPH (6 knots; 3.1 m/s)
Visibility: 6 or more miles (10+ km)
Ceiling: ceiling and visibility are OK
Clouds: unknown
Weather: no significant weather observed at this time

METAR text: ZWWW 021430Z 25003MPS CAVOK 30/M02 Q1007 NOSIG
Conditions at: ZWWW (URUM-QI/DIWOPU , CN) observed 1430 UTC 02 June 2020
Temperature: 30.0°C (86°F)
Dewpoint: -2.0°C (28°F) [RH = 12%]
Pressure (altimeter): 29.73 inches Hg (1007.0 mb)
Winds: from the WSW (250 degrees) at 7 MPH (6 knots; 3.1 m/s)
Visibility: 6 or more miles (10+ km)
Ceiling: ceiling and visibility are OK
Clouds: unknown
Weather: no significant weather observed at this time

METAR text: ZWWW 021400Z 27003MPS CAVOK 31/M02 Q1007 NOSIG
Conditions at: ZWWW (URUM-QI/DIWOPU , CN) observed 1400 UTC 02 June 2020
Temperature: 31.0°C (88°F)
Dewpoint: -2.0°C (28°F) [RH = 12%]
Pressure (altimeter): 29.73 inches Hg (1007.0 mb)
Winds: from the W (270 degrees) at 7 MPH (6 knots; 3.1 m/s)
Visibility: 6 or more miles (10+ km)
Ceiling: ceiling and visibility are OK
Clouds: unknown
Weather: no significant weather observed at this time

METAR text: ZWWW 021330Z 31002MPS 280V340 CAVOK 33/M01 Q1007 NOSIG
Conditions at: ZWWW (URUM-QI/DIWOPU , CN) observed 1330 UTC 02 June 2020
Temperature: 33.0°C (91°F)
Dewpoint: -1.0°C (30°F) [RH = 11%]
Pressure (altimeter): 29.73 inches Hg (1007.0 mb)
Winds: from the NW (310 degrees) at 5 MPH (4 knots; 2.1 m/s)
Visibility: 6 or more miles (10+ km)
Ceiling: ceiling and visibility are OK
Clouds: unknown
Weather: no significant weather observed at this time

METAR text: ZWWW 021300Z 33003MPS CAVOK 34/M02 Q1007 NOSIG
Conditions at: ZWWW (URUM-QI/DIWOPU , CN) observed 1300 UTC 02 June 2020
Temperature: 34.0°C (93°F)
Dewpoint: -2.0°C (28°F) [RH = 10%]
Pressure (altimeter): 29.73 inches Hg (1007.0 mb)
Winds: from the NNW (330 degrees) at 7 MPH (6 knots; 3.1 m/s)
Visibility: 6 or more miles (10+ km)
Ceiling: ceiling and visibility are OK
Clouds: unknown
Weather: no significant weather observed at this time

METAR text: ZWWW 021230Z 33003MPS 310V010 CAVOK 34/M03 Q1007 NOSIG
Conditions at: ZWWW (URUM-QI/DIWOPU , CN) observed 1230 UTC 02 June 2020
Temperature: 34.0°C (93°F)
Dewpoint: -3.0°C (27°F) [RH =  9%]
Pressure (altimeter): 29.73 inches Hg (1007.0 mb)
Winds: from the NNW (330 degrees) at 7 MPH (6 knots; 3.1 m/s)
Visibility: 6 or more miles (10+ km)
Ceiling: ceiling and visibility are OK
Clouds: unknown
Weather: no significant weather observed at this time

METAR text: ZWWW 021200Z 33002MPS 290V040 CAVOK 35/M04 Q1007 NOSIG
Conditions at: ZWWW (URUM-QI/DIWOPU , CN) observed 1200 UTC 02 June 2020
Temperature: 35.0°C (95°F)
Dewpoint: -4.0°C (25°F) [RH =  8%]
Pressure (altimeter): 29.73 inches Hg (1007.0 mb)
Winds: from the NNW (330 degrees) at 5 MPH (4 knots; 2.1 m/s)
Visibility: 6 or more miles (10+ km)
Ceiling: ceiling and visibility are OK
Clouds: unknown
Weather: no significant weather observed at this time

METAR text: ZWWW 021130Z 35004MPS 320V020 CAVOK 35/M04 Q1007 NOSIG
Conditions at: ZWWW (URUM-QI/DIWOPU , CN) observed 1130 UTC 02 June 2020
Temperature: 35.0°C (95°F)
Dewpoint: -4.0°C (25°F) [RH =  8%]
Pressure (altimeter): 29.73 inches Hg (1007.0 mb)
Winds: from the N (350 degrees) at 9 MPH (8 knots; 4.1 m/s)
Visibility: 6 or more miles (10+ km)
Ceiling: ceiling and visibility are OK
Clouds: unknown
Weather: no significant weather observed at this time

METAR text: ZWWW 021100Z 35003MPS 310V010 CAVOK 35/M04 Q1007 NOSIG
Conditions at: ZWWW (URUM-QI/DIWOPU , CN) observed 1100 UTC 02 June 2020
Temperature: 35.0°C (95°F)
Dewpoint: -4.0°C (25°F) [RH =  8%]
Pressure (altimeter): 29.73 inches Hg (1007.0 mb)
Winds: from the N (350 degrees) at 7 MPH (6 knots; 3.1 m/s)
Visibility: 6 or more miles (10+ km)
Ceiling: ceiling and visibility are OK
Clouds: unknown
Weather: no significant weather observed at this time

METAR text: ZWWW 021030Z VRB03MPS CAVOK 35/M03 Q1007 NOSIG
Conditions at: ZWWW (URUM-QI/DIWOPU , CN) observed 1030 UTC 02 June 2020
Temperature: 35.0°C (95°F)
Dewpoint: -3.0°C (27°F) [RH =  9%]
Pressure (altimeter): 29.73 inches Hg (1007.0 mb)
Winds: variable direction winds at 7 MPH (6 knots; 3.1 m/s)
Visibility: 6 or more miles (10+ km)
Ceiling: ceiling and visibility are OK
Clouds: unknown
Weather: no significant weather observed at this time

METAR text: ZWWW 021000Z 36004MPS 330V030 CAVOK 35/M04 Q1007 NOSIG
Conditions at: ZWWW (URUM-QI/DIWOPU , CN) observed 1000 UTC 02 June 2020
Temperature: 35.0°C (95°F)
Dewpoint: -4.0°C (25°F) [RH =  8%]
Pressure (altimeter): 29.73 inches Hg (1007.0 mb)
Winds: from the N (360 degrees) at 9 MPH (8 knots; 4.1 m/s)
Visibility: 6 or more miles (10+ km)
Ceiling: ceiling and visibility are OK
Clouds: unknown
Weather: no significant weather observed at this time

METAR text: ZWWW 020930Z 03005MPS 340V060 CAVOK 36/M03 Q1008 NOSIG
Conditions at: ZWWW (URUM-QI/DIWOPU , CN) observed 0930 UTC 02 June 2020
Temperature: 36.0°C (97°F)
Dewpoint: -3.0°C (27°F) [RH =  8%]
Pressure (altimeter): 29.76 inches Hg (1008.0 mb)
Winds: from the NNE (30 degrees) at 12 MPH (10 knots; 5.1 m/s)
Visibility: 6 or more miles (10+ km)
Ceiling: ceiling and visibility are OK
Clouds: unknown
Weather: no significant weather observed at this time

METAR text: ZWWW 020900Z 04004MPS 350V130 CAVOK 36/M03 Q1008 NOSIG
Conditions at: ZWWW (URUM-QI/DIWOPU , CN) observed 0900 UTC 02 June 2020
Temperature: 36.0°C (97°F)
Dewpoint: -3.0°C (27°F) [RH =  8%]
Pressure (altimeter): 29.76 inches Hg (1008.0 mb)
Winds: from the NE (40 degrees) at 9 MPH (8 knots; 4.1 m/s)
Visibility: 6 or more miles (10+ km)
Ceiling: ceiling and visibility are OK
Clouds: unknown
Weather: no significant weather observed at this time

METAR text: ZWWW 020830Z 36004MPS 300V040 CAVOK 35/M03 Q1008 NOSIG
Conditions at: ZWWW (URUM-QI/DIWOPU , CN) observed 0830 UTC 02 June 2020
Temperature: 35.0°C (95°F)
Dewpoint: -3.0°C (27°F) [RH =  9%]
Pressure (altimeter): 29.76 inches Hg (1008.0 mb)
Winds: from the N (360 degrees) at 9 MPH (8 knots; 4.1 m/s)
Visibility: 6 or more miles (10+ km)
Ceiling: ceiling and visibility are OK
Clouds: unknown
Weather: no significant weather observed at this time

METAR text: ZWWW 020800Z 02004G09MPS 340V070 CAVOK 35/M04 Q1008 NOSIG
Conditions at: ZWWW (URUM-QI/DIWOPU , CN) observed 0800 UTC 02 June 2020
Temperature: 35.0°C (95°F)
Dewpoint: -4.0°C (25°F) [RH =  8%]
Pressure (altimeter): 29.76 inches Hg (1008.0 mb)
Winds: from the NNE (20 degrees) at 9 MPH (8 knots; 4.1 m/s)
gusting to 20 MPH (17 knots; 8.7 m/s)
Visibility: 6 or more miles (10+ km)
Ceiling: ceiling and visibility are OK
Clouds: unknown
Weather: no significant weather observed at this time

METAR text: ZWWW 020730Z 06003MPS 350V140 CAVOK 36/M07 Q1009 NOSIG
Conditions at: ZWWW (URUM-QI/DIWOPU , CN) observed 0730 UTC 02 June 2020
Temperature: 36.0°C (97°F)
Dewpoint: -7.0°C (19°F) [RH =  6%]
Pressure (altimeter): 29.79 inches Hg (1009.0 mb)
Winds: from the ENE (60 degrees) at 7 MPH (6 knots; 3.1 m/s)
Visibility: 6 or more miles (10+ km)
Ceiling: ceiling and visibility are OK
Clouds: unknown
Weather: no significant weather observed at this time

METAR text: ZWWW 020700Z 31003MPS 250V010 CAVOK 35/M08 Q1009 NOSIG
Conditions at: ZWWW (URUM-QI/DIWOPU , CN) observed 0700 UTC 02 June 2020
Temperature: 35.0°C (95°F)
Dewpoint: -8.0°C (18°F) [RH =  6%]
Pressure (altimeter): 29.79 inches Hg (1009.0 mb)
Winds: from the NW (310 degrees) at 7 MPH (6 knots; 3.1 m/s)
Visibility: 6 or more miles (10+ km)
Ceiling: ceiling and visibility are OK
Clouds: unknown
Weather: no significant weather observed at this time

METAR text: ZWWW 020630Z 01004MPS 330V070 CAVOK 35/M06 Q1010 NOSIG
Conditions at: ZWWW (URUM-QI/DIWOPU , CN) observed 0630 UTC 02 June 2020
Temperature: 35.0°C (95°F)
Dewpoint: -6.0°C (21°F) [RH =  7%]
Pressure (altimeter): 29.82 inches Hg (1010.0 mb)
Winds: from the N (10 degrees) at 9 MPH (8 knots; 4.1 m/s)
Visibility: 6 or more miles (10+ km)
Ceiling: ceiling and visibility are OK
Clouds: unknown
Weather: no significant weather observed at this time

METAR text: ZWWW 020600Z VRB03MPS CAVOK 34/M04 Q1010 NOSIG
Conditions at: ZWWW (URUM-QI/DIWOPU , CN) observed 0600 UTC 02 June 2020
Temperature: 34.0°C (93°F)
Dewpoint: -4.0°C (25°F) [RH =  9%]
Pressure (altimeter): 29.82 inches Hg (1010.0 mb)
Winds: variable direction winds at 7 MPH (6 knots; 3.1 m/s)
Visibility: 6 or more miles (10+ km)
Ceiling: ceiling and visibility are OK
Clouds: unknown
Weather: no significant weather observed at this time

Forecast for: ZWWW (URUM-QI/DIWOPU , CN)
Text: TAF ZWWW 031509Z 0318/0418 21004MPS CAVOK TX34/0409Z TN24/0323Z
Forecast period: 1800 UTC 03 June 2020 to 0200 UTC 04 June 2020
Forecast type: FROM: standard forecast or significant change
Winds: from the SSW (210 degrees) at 9 MPH (8 knots; 4.1 m/s)
Visibility: 6 or more miles 10+ km)
Ceiling: unknown
Clouds: missing
Weather: no significant weather forecast for this period
Text: TEMPO 0318/0322 27005G12MPS 9999 FEW040CB
Forecast period: 1800 to 2200 UTC 03 June 2020
Forecast type: TEMPORARY: The following changes expected for less than half the time period
Winds: from the W (270 degrees) at 12 MPH (10 knots; 5.1 m/s)
gusting to 26 MPH (23 knots; 11.8 m/s)
Visibility: 6 or more miles 10+ km)
Ceiling: at least 12,000 feet AGL
Clouds: few clouds at 4000 feet AGL
Weather: no significant weather forecast for this period
Text: BECMG 0402/0403 34004G09MPS
Forecast period: 0200 to 1300 UTC 04 June 2020
Forecast type: BECOMING: Conditions expected to become as follows by 0300 UTC 04 June 2020
Winds: from the NNW (340 degrees) at 9 MPH (8 knots; 4.1 m/s)
gusting to 20 MPH (17 knots; 8.7 m/s)
Visibility: 6 or more miles 10+ km)
Ceiling: unknown
Clouds: missing
Weather: no significant weather forecast for this period
Text: BECMG 0413/0414 21004MPS
Forecast period: 1300 to 1800 UTC 04 June 2020
Forecast type: BECOMING: Conditions expected to become as follows by 1400 UTC 04 June 2020
Winds: from the SSW (210 degrees) at 9 MPH (8 knots; 4.1 m/s)
Visibility: 6 or more miles 10+ km)
Ceiling: unknown
Clouds: missing
Weather: no significant weather forecast for this period